createdAt,value
2019-05-20T00:01:00.887Z,75.15
2019-05-20T00:03:29.782Z,75.22
2019-05-20T00:05:58.536Z,75.27
2019-05-20T00:08:26.223Z,75.38
2019-05-20T00:10:53.996Z,75.22
2019-05-20T00:13:21.718Z,75.34
2019-05-20T00:15:50.175Z,75.66
2019-05-20T00:18:17.985Z,75.75
2019-05-20T00:20:45.758Z,75.70
2019-05-20T00:23:13.475Z,75.61
2019-05-20T00:25:41.222Z,75.70
2019-05-20T00:28:08.967Z,75.86
2019-05-20T00:30:36.761Z,75.91
2019-05-20T00:33:04.448Z,76.16
2019-05-20T00:35:32.284Z,76.18
2019-05-20T00:37:59.967Z,76.13
2019-05-20T00:40:27.866Z,76.22
2019-05-20T00:42:55.618Z,76.65
2019-05-20T00:45:23.489Z,76.44
2019-05-20T00:47:51.319Z,76.33
2019-05-20T00:50:19.255Z,76.27
2019-05-20T00:52:47.007Z,76.37
2019-05-20T00:55:23.537Z,76.39
2019-05-20T00:57:51.404Z,76.08
2019-05-20T01:00:19.329Z,76.24
2019-05-20T01:02:56.439Z,76.35
2019-05-20T01:05:17.014Z,76.43
2019-05-20T01:07:44.934Z,76.36
2019-05-20T01:10:13.936Z,76.13
2019-05-20T01:12:41.730Z,76.23
2019-05-20T01:15:10.379Z,76.28
2019-05-20T01:17:38.387Z,76.32
2019-05-20T01:20:06.310Z,76.33
2019-05-20T01:22:34.110Z,76.32
2019-05-20T01:25:02.072Z,76.33
2019-05-20T01:27:29.876Z,76.33
2019-05-20T01:29:57.583Z,76.19
2019-05-20T01:32:25.348Z,76.19
2019-05-20T01:34:53.058Z,76.30
2019-05-20T01:37:20.828Z,76.48
2019-05-20T01:39:48.658Z,76.46
2019-05-20T01:42:16.556Z,76.30
2019-05-20T01:44:44.346Z,76.27
2019-05-20T01:47:12.137Z,76.32
2019-05-20T01:49:39.860Z,76.56
2019-05-20T01:52:07.646Z,76.60
2019-05-20T01:54:35.447Z,76.76
2019-05-20T01:57:03.318Z,77.01
2019-05-20T01:59:31.116Z,77.13
2019-05-20T02:01:59.032Z,76.90
2019-05-20T02:04:26.847Z,76.90
2019-05-20T02:06:54.625Z,77.01
2019-05-20T02:09:22.349Z,77.32
2019-05-20T02:11:50.140Z,77.32
2019-05-20T02:14:21.433Z,77.47
2019-05-20T02:16:49.202Z,77.42
2019-05-20T02:19:16.938Z,77.60
2019-05-20T02:21:44.679Z,77.56
2019-05-20T02:24:12.338Z,77.58
2019-05-20T02:26:40.252Z,77.80
2019-05-20T02:29:07.983Z,77.90
2019-05-20T02:31:35.724Z,78.06
2019-05-20T02:34:03.543Z,78.04
2019-05-20T02:36:31.257Z,78.09
2019-05-20T02:38:59.024Z,77.98
2019-05-20T02:41:27.277Z,77.96
2019-05-20T02:43:55.024Z,77.84
2019-05-20T02:46:23.017Z,77.80
2019-05-20T02:48:50.788Z,77.94
2019-05-20T02:51:30.315Z,77.99
2019-05-20T02:54:00.597Z,77.95
2019-05-20T02:56:28.504Z,80.89
2019-05-20T02:58:56.562Z,79.37
2019-05-20T03:01:24.615Z,79.00
2019-05-20T03:04:09.998Z,80.06
2019-05-20T03:06:22.249Z,80.72
2019-05-20T03:08:50.101Z,79.86
2019-05-20T03:11:18.814Z,79.66
2019-05-20T03:13:46.605Z,79.56
2019-05-20T03:16:15.737Z,79.39
2019-05-20T03:18:44.786Z,79.56
2019-05-20T03:21:12.627Z,79.38
2019-05-20T03:23:40.490Z,79.37
2019-05-20T03:26:08.358Z,79.26
2019-05-20T03:28:36.154Z,79.30
2019-05-20T03:31:04.285Z,79.21
2019-05-20T03:33:32.019Z,79.13
2019-05-20T03:35:59.962Z,79.19
2019-05-20T03:38:28.218Z,79.34
2019-05-20T03:40:55.903Z,79.40
2019-05-20T03:43:24.790Z,80.12
2019-05-20T03:45:52.582Z,80.12
2019-05-20T03:48:20.431Z,80.08
2019-05-20T03:50:48.145Z,80.49
2019-05-20T03:53:15.940Z,80.23
2019-05-20T03:55:44.343Z,80.23
2019-05-20T03:58:13.695Z,80.44
2019-05-20T04:00:46.782Z,80.87
2019-05-20T04:03:15.650Z,81.31
2019-05-20T04:05:43.899Z,81.31
2019-05-20T04:08:11.949Z,80.87
2019-05-20T04:10:39.822Z,81.90
2019-05-20T04:13:08.431Z,82.54
2019-05-20T04:15:36.243Z,83.94
2019-05-20T04:18:04.647Z,83.03
2019-05-20T04:20:32.561Z,82.66
2019-05-20T04:23:00.413Z,83.38
2019-05-20T04:25:28.239Z,84.65
2019-05-20T04:27:56.089Z,83.03
2019-05-20T04:30:23.850Z,82.99
2019-05-20T04:32:51.738Z,84.03
2019-05-20T04:35:22.965Z,85.81
2019-05-20T04:37:49.728Z,85.63
2019-05-20T04:40:17.673Z,87.48
2019-05-20T04:42:45.425Z,85.77
2019-05-20T04:45:15.098Z,85.10
2019-05-20T04:47:43.858Z,84.31
2019-05-20T04:50:11.762Z,83.64
2019-05-20T04:52:39.585Z,83.46
2019-05-20T04:55:08.232Z,83.33
2019-05-20T04:57:36.059Z,83.22
2019-05-20T05:00:05.209Z,84.31
2019-05-20T05:02:32.928Z,84.75
2019-05-20T05:05:00.711Z,85.12
2019-05-20T05:07:28.545Z,83.85
2019-05-20T05:09:56.421Z,83.58
2019-05-20T05:12:24.383Z,83.73
2019-05-20T05:14:52.278Z,87.39
2019-05-20T05:17:20.210Z,87.39
2019-05-20T05:19:48.081Z,89.50
2019-05-20T05:22:16.010Z,89.34
2019-05-20T05:24:44.106Z,89.05
2019-05-20T05:27:11.928Z,86.64
2019-05-20T05:29:39.705Z,85.23
2019-05-20T05:32:07.630Z,84.63
2019-05-20T05:34:35.509Z,84.51
2019-05-20T05:37:03.779Z,84.10
2019-05-20T05:39:31.797Z,86.03
2019-05-20T05:42:00.483Z,87.48
2019-05-20T05:44:28.278Z,87.48
2019-05-20T05:46:56.059Z,88.12
2019-05-20T05:49:23.838Z,88.79
2019-05-20T05:51:51.581Z,88.79
2019-05-20T05:54:19.335Z,90.98
2019-05-20T05:56:47.052Z,90.57
2019-05-20T05:59:15.020Z,90.87
2019-05-20T06:01:42.877Z,90.78
2019-05-20T06:04:10.760Z,89.63
2019-05-20T06:06:38.504Z,89.48
2019-05-20T06:09:07.214Z,88.12
2019-05-20T06:11:35.043Z,87.45
2019-05-20T06:14:02.920Z,87.01
2019-05-20T06:16:36.540Z,88.33
2019-05-20T06:19:00.458Z,87.95
2019-05-20T06:21:28.200Z,87.85
2019-05-20T06:23:55.962Z,88.94
2019-05-20T06:26:23.650Z,91.11
2019-05-20T06:28:51.418Z,91.82
2019-05-20T06:31:19.218Z,90.68
2019-05-20T06:33:46.911Z,90.87
2019-05-20T06:36:26.363Z,91.85
2019-05-20T06:39:04.945Z,92.14
2019-05-20T06:41:32.651Z,93.04
2019-05-20T06:44:00.495Z,92.65
2019-05-20T06:46:28.289Z,92.78
2019-05-20T06:48:56.006Z,92.83
2019-05-20T06:51:23.789Z,92.21
2019-05-20T06:53:51.543Z,92.59
2019-05-20T06:56:19.556Z,91.74
2019-05-20T06:58:47.404Z,91.74
2019-05-20T07:01:15.180Z,91.45
2019-05-20T07:03:42.924Z,91.52
2019-05-20T07:06:10.770Z,92.64
2019-05-20T07:08:39.199Z,92.62
2019-05-20T07:11:07.892Z,92.16
2019-05-20T07:13:35.627Z,91.95
2019-05-20T07:16:03.533Z,92.15
2019-05-20T07:18:31.433Z,91.96
2019-05-20T07:20:59.255Z,92.22
2019-05-20T07:23:27.116Z,91.54
2019-05-20T07:25:54.870Z,91.91
2019-05-20T07:28:22.587Z,90.96
2019-05-20T07:30:50.379Z,91.74
2019-05-20T07:33:18.667Z,91.00
2019-05-20T07:35:46.506Z,91.78
2019-05-20T07:38:14.224Z,91.91
2019-05-20T07:40:42.696Z,92.37
2019-05-20T07:43:10.838Z,92.16
2019-05-20T07:45:39.239Z,92.66
2019-05-20T07:48:07.123Z,92.68
2019-05-20T07:50:37.725Z,91.81
2019-05-20T07:53:06.750Z,91.60
2019-05-20T07:55:39.751Z,90.87
2019-05-20T07:58:08.789Z,91.08
2019-05-20T08:00:37.831Z,91.21
2019-05-20T08:03:05.663Z,90.63
2019-05-20T08:05:33.717Z,89.48
2019-05-20T08:08:01.718Z,89.06
2019-05-20T08:10:29.704Z,88.95
2019-05-20T08:12:57.689Z,88.22
2019-05-20T08:15:26.068Z,88.17
2019-05-20T08:17:55.036Z,87.79
2019-05-20T08:20:23.039Z,88.14
2019-05-20T08:22:50.817Z,88.04
2019-05-20T08:25:18.779Z,87.71
2019-05-20T08:27:46.693Z,88.01
2019-05-20T08:30:15.298Z,87.93
2019-05-20T08:32:43.075Z,87.57
2019-05-20T08:35:11.215Z,86.89
2019-05-20T08:37:45.559Z,86.59
2019-05-20T08:40:09.247Z,86.09
2019-05-20T08:42:37.122Z,85.42
2019-05-20T08:45:05.463Z,85.18
2019-05-20T08:47:34.398Z,85.14
2019-05-20T08:50:04.883Z,85.57
2019-05-20T08:52:32.286Z,86.16
2019-05-20T08:55:00.024Z,87.16
2019-05-20T08:57:27.922Z,87.80
2019-05-20T08:59:55.668Z,88.68
2019-05-20T09:02:23.395Z,89.32
2019-05-20T09:04:51.223Z,89.16
2019-05-20T09:07:19.116Z,89.86
2019-05-20T09:09:46.836Z,88.86
2019-05-20T09:12:14.623Z,89.40
2019-05-20T09:14:42.432Z,89.27
2019-05-20T09:17:11.452Z,90.11
2019-05-20T09:19:39.429Z,90.45
2019-05-20T09:22:07.209Z,90.07
2019-05-20T09:24:35.092Z,90.12
2019-05-20T09:27:03.300Z,89.92
2019-05-20T09:29:31.047Z,88.71
2019-05-20T09:31:59.105Z,88.99
2019-05-20T09:34:27.652Z,88.87
2019-05-20T09:36:55.556Z,88.55
2019-05-20T09:39:23.355Z,87.76
2019-05-20T09:41:51.131Z,87.37
2019-05-20T09:44:18.912Z,87.31
2019-05-20T09:46:46.874Z,87.04
2019-05-20T09:49:15.097Z,87.23
2019-05-20T09:51:43.348Z,86.82
2019-05-20T09:54:11.159Z,87.03
2019-05-20T09:56:39.182Z,87.23
2019-05-20T09:59:07.762Z,87.23
2019-05-20T10:01:39.542Z,86.74
2019-05-20T10:04:05.356Z,85.86
2019-05-20T10:06:33.157Z,85.20
2019-05-20T10:09:00.911Z,85.56
2019-05-20T10:11:28.796Z,84.05
2019-05-20T10:13:56.651Z,83.52
2019-05-20T10:16:24.448Z,81.49
2019-05-20T10:18:55.430Z,80.55
2019-05-20T10:21:22.831Z,79.84
2019-05-20T10:23:50.784Z,80.49
2019-05-20T10:26:18.728Z,80.41
2019-05-20T10:28:47.656Z,79.90
2019-05-20T10:31:15.655Z,79.03
2019-05-20T10:33:43.392Z,77.64
2019-05-20T10:36:11.110Z,76.76
2019-05-20T10:38:56.841Z,76.27
2019-05-20T10:41:10.825Z,75.79
2019-05-20T10:43:38.654Z,74.72
2019-05-20T10:46:06.565Z,73.53
2019-05-20T10:48:34.398Z,72.16
2019-05-20T10:51:02.229Z,71.53
2019-05-20T10:53:30.048Z,70.53
2019-05-20T10:55:58.520Z,70.40
2019-05-20T10:58:26.882Z,69.77
2019-05-20T11:01:02.277Z,69.56
2019-05-20T11:03:24.395Z,70.55
2019-05-20T11:05:52.201Z,70.45
2019-05-20T11:08:20.865Z,69.92
2019-05-20T11:10:48.582Z,70.48
2019-05-20T11:13:16.738Z,70.32
2019-05-20T11:15:44.600Z,69.32
2019-05-20T11:18:12.459Z,70.79
2019-05-20T11:20:40.151Z,71.03
2019-05-20T11:23:07.886Z,71.17
2019-05-20T11:25:35.648Z,71.27
2019-05-20T11:28:03.644Z,70.58
2019-05-20T11:30:31.461Z,68.59
2019-05-20T11:33:00.021Z,70.37
2019-05-20T11:35:28.036Z,70.60
2019-05-20T11:37:55.844Z,70.35
2019-05-20T11:40:24.051Z,69.80
2019-05-20T11:42:52.892Z,68.99
2019-05-20T11:45:22.394Z,69.04
2019-05-20T11:47:50.242Z,67.04
2019-05-20T11:50:18.381Z,66.70
2019-05-20T11:52:46.195Z,65.43
2019-05-20T11:55:14.220Z,65.42
2019-05-20T11:57:42.008Z,65.89
2019-05-20T12:00:11.126Z,66.20
2019-05-20T12:02:39.069Z,64.33
2019-05-20T12:05:07.220Z,64.28
2019-05-20T12:07:34.998Z,64.46
2019-05-20T12:10:03.583Z,63.99
2019-05-20T12:12:31.328Z,63.42
2019-05-20T12:14:59.204Z,62.55
2019-05-20T12:17:26.966Z,61.99
2019-05-20T12:19:54.708Z,61.62
2019-05-20T12:22:22.454Z,61.95
2019-05-20T12:24:51.774Z,61.30
2019-05-20T12:27:19.827Z,61.53
2019-05-20T12:29:47.630Z,61.48
2019-05-20T12:32:15.425Z,62.46
2019-05-20T12:34:43.384Z,63.57
2019-05-20T12:37:11.231Z,62.91
2019-05-20T12:39:39.139Z,63.79
2019-05-20T12:42:07.240Z,64.12
2019-05-20T12:44:34.994Z,63.16
2019-05-20T12:47:02.695Z,62.21
2019-05-20T12:49:30.833Z,61.38
2019-05-20T12:51:58.671Z,59.72
2019-05-20T12:54:26.650Z,59.18
2019-05-20T12:56:54.362Z,57.26
2019-05-20T12:59:22.127Z,56.78
2019-05-20T13:01:49.836Z,53.96
2019-05-20T13:04:18.210Z,53.30
2019-05-20T13:06:45.951Z,53.77
2019-05-20T13:09:13.807Z,51.74
2019-05-20T13:11:41.537Z,51.58
2019-05-20T13:14:10.176Z,52.60
2019-05-20T13:16:37.864Z,52.85
2019-05-20T13:19:05.742Z,51.99
2019-05-20T13:21:33.545Z,50.92
2019-05-20T13:24:01.388Z,51.85
2019-05-20T13:26:29.050Z,52.27
2019-05-20T13:28:59.696Z,52.78
2019-05-20T13:31:26.577Z,52.60
2019-05-20T13:33:54.387Z,52.96
2019-05-20T13:36:22.370Z,53.77
2019-05-20T13:38:50.571Z,52.13
2019-05-20T13:41:18.278Z,52.05
2019-05-20T13:43:46.141Z,50.64
2019-05-20T13:46:14.080Z,50.22
2019-05-20T13:48:41.886Z,49.89
2019-05-20T13:51:10.684Z,49.93
2019-05-20T13:53:38.619Z,49.17
2019-05-20T13:56:06.411Z,49.35
2019-05-20T13:58:34.437Z,48.75
2019-05-20T14:01:02.285Z,48.48
2019-05-20T14:03:30.080Z,48.15
2019-05-20T14:05:57.878Z,46.97
2019-05-20T14:08:25.583Z,46.20
2019-05-20T14:11:03.599Z,46.04
2019-05-20T14:13:27.352Z,45.15
2019-05-20T14:15:56.425Z,45.24
2019-05-20T14:18:26.080Z,46.74
2019-05-20T14:20:55.037Z,48.19
2019-05-20T14:23:22.854Z,48.46
2019-05-20T14:25:50.959Z,49.73
2019-05-20T14:28:18.827Z,48.82
2019-05-20T14:30:46.706Z,49.11
2019-05-20T14:33:14.601Z,49.13
2019-05-20T14:35:42.408Z,48.94
2019-05-20T14:38:10.834Z,48.01
2019-05-20T14:40:39.362Z,48.38
2019-05-20T14:43:07.890Z,48.03
2019-05-20T14:45:35.768Z,48.50
2019-05-20T14:48:03.885Z,47.53
2019-05-20T14:50:31.865Z,47.20
2019-05-20T14:52:59.629Z,47.74
2019-05-20T14:55:27.555Z,47.34
2019-05-20T14:57:55.354Z,47.21
2019-05-20T15:00:23.234Z,46.19
2019-05-20T15:02:52.844Z,46.28
2019-05-20T15:05:20.839Z,46.39
2019-05-20T15:07:48.626Z,45.60
2019-05-20T15:10:16.620Z,45.37
2019-05-20T15:12:45.255Z,45.73
2019-05-20T15:15:15.022Z,46.05
2019-05-20T15:17:42.721Z,45.75
2019-05-20T15:20:10.841Z,45.48
2019-05-20T15:22:38.566Z,44.59
2019-05-20T15:25:07.104Z,44.58
2019-05-20T15:27:34.951Z,44.37
2019-05-20T15:30:02.839Z,44.06
2019-05-20T15:32:31.207Z,44.16
2019-05-20T15:34:59.805Z,44.91
2019-05-20T15:37:27.532Z,43.80
2019-05-20T15:39:55.736Z,44.34
2019-05-20T15:42:23.524Z,44.86
2019-05-20T15:44:51.390Z,44.90
2019-05-20T15:47:19.415Z,44.79
2019-05-20T15:49:47.213Z,44.83
2019-05-20T15:52:15.043Z,44.65
2019-05-20T15:54:42.896Z,45.14
2019-05-20T15:57:10.779Z,44.82
2019-05-20T15:59:46.154Z,45.29
2019-05-20T16:02:08.358Z,44.85
2019-05-20T16:04:36.074Z,44.38
2019-05-20T16:07:04.071Z,44.49
2019-05-20T16:09:31.877Z,44.25
2019-05-20T16:11:59.629Z,43.70
2019-05-20T16:14:28.538Z,44.21
2019-05-20T16:16:56.574Z,44.45
2019-05-20T16:19:24.333Z,44.43
2019-05-20T16:21:52.128Z,44.00
2019-05-20T16:24:19.899Z,44.77
2019-05-20T16:26:47.640Z,44.66
2019-05-20T16:29:15.465Z,45.12
2019-05-20T16:31:43.364Z,45.09
2019-05-20T16:34:11.132Z,45.30
2019-05-20T16:36:39.088Z,45.32
2019-05-20T16:39:08.224Z,45.26
2019-05-20T16:41:36.126Z,45.23
2019-05-20T16:44:04.002Z,46.15
2019-05-20T16:46:33.182Z,45.80
2019-05-20T16:49:01.040Z,46.43
2019-05-20T16:51:28.909Z,45.96
2019-05-20T16:53:56.731Z,46.12
2019-05-20T16:56:24.535Z,46.38
2019-05-20T16:58:52.411Z,45.68
2019-05-20T17:01:20.952Z,45.46
2019-05-20T17:03:49.720Z,45.71
2019-05-20T17:06:17.569Z,45.91
2019-05-20T17:08:45.393Z,45.84
2019-05-20T17:11:13.357Z,45.88
2019-05-20T17:13:41.168Z,46.89
2019-05-20T17:16:09.003Z,46.61
2019-05-20T17:18:36.850Z,46.60
2019-05-20T17:21:04.800Z,46.75
2019-05-20T17:23:32.667Z,47.03
2019-05-20T17:26:00.369Z,46.68
2019-05-20T17:28:28.128Z,47.56
2019-05-20T17:30:55.932Z,47.60
2019-05-20T17:33:23.810Z,47.58
2019-05-20T17:35:51.631Z,48.37
2019-05-20T17:38:22.446Z,48.56
2019-05-20T17:40:52.436Z,49.22
2019-05-20T17:43:25.581Z,49.36
2019-05-20T17:45:59.583Z,50.37
2019-05-20T17:48:30.113Z,49.79
2019-05-20T17:51:00.219Z,50.10
2019-05-20T17:53:28.521Z,50.24
2019-05-20T17:56:00.727Z,50.33
2019-05-20T17:58:29.367Z,49.81
2019-05-20T18:01:12.181Z,49.88
2019-05-20T18:03:27.976Z,49.78
2019-05-20T18:05:58.338Z,50.12
2019-05-20T18:08:34.928Z,50.44
2019-05-20T18:11:07.480Z,50.41
2019-05-20T18:13:36.398Z,50.56
2019-05-20T18:16:11.589Z,50.58
2019-05-20T18:18:47.548Z,51.07
2019-05-20T18:21:19.037Z,51.38
2019-05-20T18:23:48.724Z,52.33
2019-05-20T18:26:23.285Z,52.30
2019-05-20T18:28:52.143Z,52.41
2019-05-20T18:31:32.047Z,52.13
2019-05-20T18:33:51.372Z,52.06
2019-05-20T18:36:19.191Z,52.55
2019-05-20T18:38:49.443Z,52.56
2019-05-20T18:41:16.736Z,52.81
2019-05-20T18:43:44.637Z,53.12
2019-05-20T18:46:12.949Z,53.77
2019-05-20T18:48:41.486Z,54.27
2019-05-20T18:51:09.788Z,55.05
2019-05-20T18:53:37.881Z,54.76
2019-05-20T18:56:06.417Z,55.01
2019-05-20T18:58:34.315Z,55.36
2019-05-20T19:01:02.343Z,55.53
2019-05-20T19:03:30.385Z,55.37
2019-05-20T19:05:58.642Z,55.56
2019-05-20T19:08:26.560Z,56.32
2019-05-20T19:10:54.393Z,56.15
2019-05-20T19:13:22.553Z,56.43
2019-05-20T19:15:50.461Z,56.32
2019-05-20T19:18:18.183Z,56.23
2019-05-20T19:20:46.190Z,56.05
2019-05-20T19:23:14.099Z,56.00
2019-05-20T19:25:43.938Z,55.80
2019-05-20T19:28:11.670Z,55.94
2019-05-20T19:30:39.785Z,56.06
2019-05-20T19:33:07.625Z,55.98
2019-05-20T19:35:35.365Z,55.94
2019-05-20T19:38:03.221Z,56.77
2019-05-20T19:40:30.982Z,56.43
2019-05-20T19:42:58.859Z,57.36
2019-05-20T19:45:26.660Z,56.82
2019-05-20T19:47:54.412Z,57.44
2019-05-20T19:50:22.259Z,57.55
2019-05-20T19:52:50.105Z,57.62
2019-05-20T19:55:18.985Z,57.61
2019-05-20T19:57:47.274Z,58.03
2019-05-20T20:00:16.498Z,59.22
2019-05-20T20:02:44.415Z,59.57
2019-05-20T20:05:12.885Z,59.81
2019-05-20T20:07:40.691Z,59.76
2019-05-20T20:10:09.365Z,59.78
2019-05-20T20:12:37.152Z,59.87
2019-05-20T20:15:05.438Z,60.88
2019-05-20T20:17:33.194Z,60.23
2019-05-20T20:20:01.211Z,60.28
2019-05-20T20:22:29.036Z,60.37
2019-05-20T20:24:56.799Z,60.67
2019-05-20T20:27:24.595Z,60.84
2019-05-20T20:29:52.356Z,61.13
2019-05-20T20:32:35.156Z,61.37
2019-05-20T20:34:49.864Z,61.12
2019-05-20T20:37:17.570Z,61.22
2019-05-20T20:39:47.055Z,61.46
2019-05-20T20:42:14.854Z,61.21
2019-05-20T20:44:42.591Z,61.77
2019-05-20T20:47:10.319Z,61.73
2019-05-20T20:49:38.109Z,61.07
2019-05-20T20:52:05.992Z,60.99
2019-05-20T20:54:33.818Z,60.81
2019-05-20T20:57:01.593Z,61.45
2019-05-20T20:59:29.860Z,61.32
2019-05-20T21:01:59.207Z,61.70
2019-05-20T21:04:27.349Z,61.82
2019-05-20T21:06:55.049Z,62.06
2019-05-20T21:09:22.790Z,62.51
2019-05-20T21:11:50.686Z,62.93
2019-05-20T21:14:18.447Z,63.09
2019-05-20T21:16:46.252Z,63.28
2019-05-20T21:19:14.595Z,63.65
2019-05-20T21:21:42.276Z,63.62
2019-05-20T21:24:10.047Z,64.00
2019-05-20T21:26:37.724Z,63.78
2019-05-20T21:29:05.484Z,63.61
2019-05-20T21:31:33.291Z,63.56
2019-05-20T21:34:01.164Z,63.51
2019-05-20T21:36:28.863Z,63.62
2019-05-20T21:38:56.654Z,64.01
2019-05-20T21:41:24.403Z,64.30
2019-05-20T21:43:52.841Z,64.24
2019-05-20T21:46:20.536Z,64.66
2019-05-20T21:48:48.321Z,65.35
2019-05-20T21:51:16.191Z,65.68
2019-05-20T21:53:43.964Z,65.19
2019-05-20T21:56:11.848Z,65.13
2019-05-20T21:58:39.551Z,65.00
2019-05-20T22:01:07.514Z,65.00
2019-05-20T22:03:36.446Z,65.18
2019-05-20T22:06:04.447Z,65.36
2019-05-20T22:08:32.170Z,65.41
2019-05-20T22:10:59.975Z,65.47
2019-05-20T22:13:27.682Z,65.55
2019-05-20T22:15:55.579Z,66.16
2019-05-20T22:18:24.692Z,66.17
2019-05-20T22:20:52.557Z,66.20
2019-05-20T22:23:24.669Z,66.05
2019-05-20T22:25:52.495Z,66.03
2019-05-20T22:28:20.289Z,66.11
2019-05-20T22:30:48.036Z,66.10
2019-05-20T22:33:15.967Z,66.15
2019-05-20T22:35:43.726Z,66.23
2019-05-20T22:38:11.429Z,66.29
2019-05-20T22:40:39.213Z,66.55
2019-05-20T22:43:06.953Z,66.63
2019-05-20T22:45:34.744Z,67.25
2019-05-20T22:48:03.198Z,67.26
2019-05-20T22:50:31.587Z,67.41
2019-05-20T22:52:59.365Z,67.39
2019-05-20T22:55:27.107Z,67.64
2019-05-20T22:57:55.245Z,67.87
2019-05-20T23:00:23.639Z,68.06
2019-05-20T23:02:51.316Z,68.14
2019-05-20T23:05:19.415Z,68.18
2019-05-20T23:07:47.157Z,68.24
2019-05-20T23:10:15.149Z,68.45
2019-05-20T23:12:42.828Z,68.56
2019-05-20T23:15:11.244Z,68.72
2019-05-20T23:17:38.980Z,68.76
2019-05-20T23:20:07.440Z,68.87
2019-05-20T23:22:35.172Z,68.93
2019-05-20T23:25:03.378Z,69.01
2019-05-20T23:27:31.117Z,69.01
2019-05-20T23:29:58.932Z,69.21
2019-05-20T23:32:26.654Z,69.29
2019-05-20T23:34:54.367Z,69.37
2019-05-20T23:37:22.152Z,69.68
2019-05-20T23:39:50.071Z,69.66
2019-05-20T23:42:17.967Z,69.59
2019-05-20T23:44:45.717Z,69.59
2019-05-20T23:47:13.474Z,69.75
2019-05-20T23:49:41.296Z,69.79
2019-05-20T23:52:09.115Z,69.76
2019-05-20T23:54:36.907Z,69.87
2019-05-20T23:57:04.691Z,69.93
2019-05-20T23:59:32.440Z,69.96
